createdAt,value
2016-08-01T00:00:21.702Z,0
2016-08-01T00:01:21.730Z,0
2016-08-01T00:02:21.756Z,0
2016-08-01T00:04:21.808Z,0
2016-08-01T00:05:21.841Z,0
2016-08-01T00:06:21.863Z,0
2016-08-01T00:07:21.888Z,0
2016-08-01T00:08:36.839Z,0
2016-08-01T00:09:21.942Z,0
2016-08-01T00:10:36.890Z,0
2016-08-01T00:11:36.909Z,0
2016-08-01T00:12:22.021Z,0
2016-08-01T00:13:22.051Z,0
2016-08-01T00:14:22.077Z,0
2016-08-01T00:15:22.104Z,0
2016-08-01T00:16:22.116Z,0
2016-08-01T00:17:22.201Z,0
2016-08-01T00:19:22.199Z,0
2016-08-01T00:20:22.222Z,0
2016-08-01T00:21:22.253Z,0
2016-08-01T00:22:22.272Z,0
2016-08-01T00:23:22.305Z,0
2016-08-01T00:24:22.346Z,0
2016-08-01T00:25:22.407Z,0
2016-08-01T00:26:22.385Z,0
2016-08-01T00:27:37.330Z,0
2016-08-01T00:29:22.461Z,0
2016-08-01T00:30:22.497Z,0
2016-08-01T00:31:22.512Z,0
2016-08-01T00:32:22.541Z,0
2016-08-01T00:34:22.645Z,0
2016-08-01T00:35:22.623Z,0
2016-08-01T00:36:22.646Z,0
2016-08-01T00:37:22.667Z,0
2016-08-01T00:38:22.699Z,0
2016-08-01T00:39:37.651Z,0
2016-08-01T00:40:22.750Z,0
2016-08-01T00:41:22.779Z,0
2016-08-01T00:42:22.806Z,0
2016-08-01T00:43:37.766Z,0
2016-08-01T00:44:22.860Z,0
2016-08-01T00:45:22.883Z,0
2016-08-01T00:46:22.914Z,0
2016-08-01T00:47:22.933Z,0
2016-08-01T00:48:22.953Z,0
2016-08-01T00:49:22.983Z,0
2016-08-01T00:50:23.018Z,0
2016-08-01T00:51:23.041Z,0
2016-08-01T00:52:23.063Z,0
2016-08-01T00:53:23.095Z,0
2016-08-01T00:54:23.116Z,0
2016-08-01T00:55:38.070Z,0
2016-08-01T00:56:23.173Z,0
2016-08-01T00:57:23.193Z,0
2016-08-01T00:58:23.281Z,0
2016-08-01T01:00:38.197Z,0
2016-08-01T01:01:23.301Z,0
2016-08-01T01:02:23.327Z,0
2016-08-01T01:03:23.344Z,0
2016-08-01T01:04:23.377Z,0
2016-08-01T01:05:23.407Z,0
2016-08-01T01:06:23.432Z,0
2016-08-01T01:07:23.460Z,0
2016-08-01T01:08:23.486Z,0
2016-08-01T01:09:23.508Z,0
2016-08-01T01:10:23.540Z,0
2016-08-01T01:11:23.557Z,0
2016-08-01T01:12:23.586Z,0
2016-08-01T01:13:23.616Z,0
2016-08-01T01:15:23.662Z,0
2016-08-01T01:16:23.689Z,0
2016-08-01T01:17:23.712Z,0
2016-08-01T01:18:23.743Z,0
2016-08-01T01:19:23.775Z,0
2016-08-01T01:20:23.790Z,0
2016-08-01T01:21:23.817Z,0
2016-08-01T01:22:23.855Z,0
2016-08-01T01:23:23.863Z,0
2016-08-01T01:24:24.599Z,0
2016-08-01T01:25:23.978Z,0
2016-08-01T01:26:23.954Z,0
2016-08-01T01:27:23.977Z,0
2016-08-01T01:28:23.996Z,0
2016-08-01T01:29:24.032Z,0
2016-08-01T01:30:24.069Z,0
2016-08-01T01:31:24.080Z,0
2016-08-01T01:32:24.103Z,0
2016-08-01T01:33:24.190Z,0
2016-08-01T01:34:24.152Z,0
2016-08-01T01:35:24.178Z,0
2016-08-01T01:36:24.221Z,0
2016-08-01T01:37:24.232Z,0
2016-08-01T01:38:24.268Z,0
2016-08-01T01:39:24.336Z,0
2016-08-01T01:40:24.307Z,0
2016-08-01T01:41:24.335Z,0
2016-08-01T01:42:24.364Z,0
2016-08-01T01:43:25.090Z,0
2016-08-01T01:44:24.421Z,0
2016-08-01T01:45:24.455Z,0
2016-08-01T01:46:39.396Z,0
2016-08-01T01:47:24.492Z,0
2016-08-01T01:48:24.517Z,0
2016-08-01T01:49:24.539Z,0
2016-08-01T01:50:24.572Z,0
2016-08-01T01:51:24.601Z,0
2016-08-01T01:52:24.621Z,0
2016-08-01T01:53:24.645Z,0
2016-08-01T01:54:24.678Z,0
2016-08-01T01:55:24.700Z,0
2016-08-01T01:57:24.755Z,0
2016-08-01T01:58:39.704Z,0
2016-08-01T02:01:24.855Z,0
2016-08-01T02:02:39.804Z,0
2016-08-01T02:03:24.910Z,0
2016-08-01T02:04:24.935Z,0
2016-08-01T02:05:24.958Z,0
2016-08-01T02:07:25.015Z,0
2016-08-01T02:08:25.033Z,0
2016-08-01T02:09:25.065Z,0
2016-08-01T02:10:25.137Z,0
2016-08-01T02:12:25.140Z,0
2016-08-01T02:13:25.164Z,0
2016-08-01T02:14:25.190Z,0
2016-08-01T02:15:25.222Z,0
2016-08-01T02:16:25.242Z,0
2016-08-01T02:17:25.269Z,0
2016-08-01T02:18:40.219Z,0
2016-08-01T02:19:25.329Z,0
2016-08-01T02:20:25.350Z,0
2016-08-01T02:21:25.379Z,0
2016-08-01T02:22:25.394Z,0
2016-08-01T02:23:25.417Z,0
2016-08-01T02:24:25.444Z,0
2016-08-01T02:25:25.476Z,0
2016-08-01T02:26:25.500Z,0
2016-08-01T02:27:25.517Z,0
2016-08-01T02:28:25.545Z,0
2016-08-01T02:29:25.625Z,0
2016-08-01T02:30:25.603Z,0
2016-08-01T02:31:40.551Z,0
2016-08-01T02:32:25.650Z,0
2016-08-01T02:33:25.725Z,0
2016-08-01T02:34:40.625Z,0
2016-08-01T02:35:25.727Z,0
2016-08-01T02:36:25.753Z,0
2016-08-01T02:37:25.781Z,0
2016-08-01T02:38:25.802Z,0
2016-08-01T02:39:25.829Z,0
2016-08-01T02:40:25.855Z,0
2016-08-01T02:41:25.935Z,0
2016-08-01T02:42:26.602Z,0
2016-08-01T02:43:25.935Z,0
2016-08-01T02:44:40.887Z,4
2016-08-01T02:45:25.998Z,4
2016-08-01T02:46:40.935Z,4
2016-08-01T02:48:26.070Z,0
2016-08-01T02:49:41.020Z,4
2016-08-01T02:50:26.111Z,4
2016-08-01T02:51:26.138Z,4
2016-08-01T02:52:26.165Z,4
2016-08-01T02:53:26.199Z,4
2016-08-01T02:54:26.233Z,4
2016-08-01T02:55:26.237Z,4
2016-08-01T02:56:26.267Z,4
2016-08-01T02:57:26.296Z,4
2016-08-01T02:58:26.321Z,8
2016-08-01T02:59:26.351Z,8
2016-08-01T03:00:26.372Z,12
2016-08-01T03:01:42.027Z,16
2016-08-01T03:02:26.421Z,12
2016-08-01T03:03:26.448Z,16
2016-08-01T03:04:26.480Z,20
2016-08-01T03:05:26.506Z,20
2016-08-01T03:06:26.519Z,24
2016-08-01T03:07:26.554Z,32
2016-08-01T03:08:26.578Z,32
2016-08-01T03:09:26.606Z,44
2016-08-01T03:10:26.648Z,48
2016-08-01T03:11:26.705Z,40
2016-08-01T03:12:26.679Z,52
2016-08-01T03:13:26.708Z,68
2016-08-01T03:14:26.725Z,80
2016-08-01T03:15:26.767Z,88
2016-08-01T03:16:26.783Z,100
2016-08-01T03:17:41.731Z,120
2016-08-01T03:18:26.838Z,132
2016-08-01T03:19:41.784Z,152
2016-08-01T03:20:26.886Z,160
2016-08-01T03:21:41.829Z,184
2016-08-01T03:22:26.941Z,196
2016-08-01T03:23:26.952Z,208
2016-08-01T03:24:26.987Z,220
2016-08-01T03:25:27.012Z,220
2016-08-01T03:26:27.042Z,252
2016-08-01T03:27:27.073Z,280
2016-08-01T03:28:27.092Z,292
2016-08-01T03:29:27.114Z,328
2016-08-01T03:30:42.066Z,368
2016-08-01T03:31:27.166Z,392
2016-08-01T03:32:27.189Z,412
2016-08-01T03:33:27.273Z,344
2016-08-01T03:34:27.262Z,388
2016-08-01T03:35:27.265Z,440
2016-08-01T03:36:42.262Z,432
2016-08-01T03:37:42.245Z,456
2016-08-01T03:38:27.341Z,476
2016-08-01T03:39:27.375Z,440
2016-08-01T03:40:27.392Z,544
2016-08-01T03:41:27.435Z,668
2016-08-01T03:42:27.446Z,676
2016-08-01T03:43:27.516Z,668
2016-08-01T03:44:27.513Z,764
2016-08-01T03:46:27.546Z,872
2016-08-01T03:47:27.576Z,872
2016-08-01T03:48:27.593Z,832
2016-08-01T03:49:27.626Z,976
2016-08-01T03:50:27.653Z,1096
2016-08-01T03:51:27.673Z,1240
2016-08-01T03:52:42.625Z,1308
2016-08-01T03:53:42.652Z,1436
2016-08-01T03:54:27.750Z,1560
2016-08-01T03:55:27.780Z,1684
2016-08-01T03:56:27.806Z,1636
2016-08-01T03:57:27.822Z,1680
2016-08-01T03:58:27.861Z,1668
2016-08-01T03:59:27.886Z,1916
2016-08-01T04:00:27.903Z,2032
2016-08-01T04:01:27.931Z,2320
2016-08-01T04:02:27.971Z,2328
2016-08-01T04:03:27.987Z,2352
2016-08-01T04:04:29.669Z,2364
2016-08-01T04:05:28.036Z,2380
2016-08-01T04:06:28.063Z,2492
2016-08-01T04:07:28.090Z,2576
2016-08-01T04:08:28.112Z,2660
2016-08-01T04:09:43.064Z,2816
2016-08-01T04:10:28.168Z,2916
2016-08-01T04:11:28.193Z,2940
2016-08-01T04:12:43.134Z,3220
2016-08-01T04:13:28.238Z,3412
2016-08-01T04:14:28.267Z,3884
2016-08-01T04:15:28.291Z,4600
2016-08-01T04:16:28.319Z,4416
2016-08-01T04:17:28.395Z,3284
2016-08-01T04:18:28.371Z,2484
2016-08-01T04:20:28.419Z,2228
2016-08-01T04:21:43.375Z,3680
2016-08-01T04:22:28.476Z,3520
2016-08-01T04:23:28.498Z,2188
2016-08-01T04:24:43.444Z,1868
2016-08-01T04:25:28.552Z,3080
2016-08-01T04:26:28.587Z,2168
2016-08-01T04:27:28.608Z,1676
2016-08-01T04:28:28.631Z,1668
2016-08-01T04:29:28.655Z,3440
2016-08-01T04:30:28.671Z,2212
2016-08-01T04:32:28.734Z,1648
2016-08-01T04:33:28.749Z,3080
2016-08-01T04:34:29.607Z,2936
2016-08-01T04:35:28.803Z,2464
2016-08-01T04:36:43.756Z,2232
2016-08-01T04:37:43.789Z,3956
2016-08-01T04:39:28.958Z,3992
2016-08-01T04:40:28.939Z,4288
2016-08-01T04:41:28.957Z,5524
2016-08-01T04:42:28.982Z,7740
2016-08-01T04:43:29.016Z,9048
2016-08-01T04:44:29.044Z,6796
2016-08-01T04:45:29.067Z,7220
2016-08-01T04:46:29.093Z,8236
2016-08-01T04:47:29.112Z,9452
2016-08-01T04:48:29.147Z,9164
2016-08-01T04:50:29.247Z,10040
2016-08-01T04:52:44.176Z,10776
2016-08-01T04:53:44.197Z,11224
2016-08-01T04:54:44.223Z,12040
2016-08-01T04:55:29.319Z,11296
2016-08-01T04:56:44.274Z,19328
2016-08-01T04:57:29.388Z,8956
2016-08-01T04:58:29.414Z,15776
2016-08-01T04:59:29.428Z,10528
2016-08-01T05:01:29.483Z,38112
2016-08-01T05:02:29.512Z,10400
2016-08-01T05:03:29.534Z,43232
2016-08-01T05:05:29.587Z,12224
2016-08-01T05:06:29.620Z,52352
2016-08-01T05:07:29.645Z,55424
2016-08-01T05:08:29.668Z,25664
2016-08-01T05:10:29.730Z,52928
2016-08-01T05:11:29.759Z,43424
2016-08-01T05:12:44.703Z,20128
2016-08-01T05:13:44.734Z,56320
2016-08-01T05:14:44.760Z,41888
2016-08-01T05:15:29.866Z,63776
2016-08-01T05:16:29.894Z,60160
2016-08-01T05:17:29.927Z,31264
2016-08-01T05:20:30.011Z,59136
2016-08-01T05:21:30.047Z,14504
2016-08-01T05:22:30.074Z,27424
2016-08-01T05:25:30.167Z,9208
2016-08-01T05:26:30.192Z,12264
2016-08-01T05:27:45.156Z,57440
2016-08-01T05:28:45.178Z,11496
2016-08-01T05:29:30.291Z,28640
2016-08-01T05:30:30.316Z,54592
2016-08-01T05:31:30.353Z,15228
2016-08-01T05:33:30.412Z,62912
2016-08-01T05:34:31.278Z,63904
2016-08-01T05:35:30.476Z,62784
2016-08-01T05:36:30.506Z,54208
2016-08-01T05:37:30.533Z,64128
2016-08-01T05:38:30.579Z,66816
2016-08-01T05:39:30.590Z,65632
2016-08-01T05:40:30.625Z,62976
2016-08-01T05:41:45.636Z,69792
2016-08-01T05:42:30.694Z,68864
2016-08-01T05:43:30.717Z,72416
2016-08-01T05:44:45.683Z,73344
2016-08-01T05:45:30.787Z,71200
2016-08-01T05:46:30.821Z,74208
2016-08-01T05:47:30.853Z,73376
2016-08-01T05:48:30.890Z,71328
2016-08-01T05:50:30.959Z,75136
2016-08-01T05:51:30.991Z,75104
2016-08-01T05:52:31.028Z,77216
2016-08-01T05:53:31.072Z,80352
2016-08-01T05:54:31.088Z,80384
2016-08-01T05:55:31.128Z,76480
2016-08-01T05:56:31.157Z,77120
2016-08-01T05:57:46.116Z,78208
2016-08-01T05:59:46.188Z,75872
2016-08-01T06:00:31.299Z,71552
2016-08-01T06:01:31.347Z,66944
2016-08-01T06:02:31.363Z,66592
2016-08-01T06:03:31.400Z,58656
2016-08-01T06:04:33.908Z,68960
2016-08-01T06:05:31.465Z,80800
2016-08-01T06:06:46.430Z,83520
2016-08-01T06:07:31.550Z,82368
2016-08-01T06:08:31.558Z,84544
2016-08-01T06:09:31.603Z,78880
2016-08-01T06:10:31.639Z,81376
2016-08-01T06:11:31.674Z,81440
2016-08-01T06:13:31.735Z,65344
2016-08-01T06:14:32.470Z,70720
2016-08-01T06:15:31.821Z,38720
2016-08-01T06:16:31.849Z,81280
2016-08-01T06:17:31.876Z,76384
2016-08-01T06:18:31.917Z,81600
2016-08-01T06:20:31.981Z,81312
2016-08-01T06:21:32.020Z,83616
2016-08-01T06:22:32.046Z,80832
2016-08-01T06:23:32.081Z,82528
2016-08-01T06:24:32.125Z,81536
2016-08-01T06:25:32.154Z,75456
2016-08-01T06:26:32.189Z,74976
2016-08-01T06:27:32.222Z,78400
2016-08-01T06:28:32.254Z,81472
2016-08-01T06:29:32.292Z,83392
2016-08-01T06:30:32.323Z,70496
2016-08-01T06:31:47.287Z,81344
2016-08-01T06:32:32.397Z,78720
2016-08-01T06:33:32.434Z,84352
2016-08-01T06:35:33.203Z,82912
2016-08-01T06:36:32.530Z,81088
2016-08-01T06:37:32.575Z,81472
2016-08-01T06:38:32.602Z,81216
2016-08-01T06:39:32.642Z,81952
2016-08-01T06:40:47.604Z,19104
2016-08-01T06:41:32.708Z,79040
2016-08-01T06:42:47.673Z,76224
2016-08-01T06:43:32.783Z,76224
2016-08-01T06:44:32.823Z,63296
2016-08-01T06:45:32.848Z,46720
2016-08-01T06:46:32.934Z,46368
2016-08-01T06:47:47.850Z,58368
2016-08-01T06:48:32.957Z,48832
2016-08-01T06:49:33.008Z,57120
2016-08-01T06:50:33.020Z,36384
2016-08-01T06:51:33.067Z,11244
2016-08-01T06:52:33.092Z,60000
2016-08-01T06:53:33.124Z,50464
2016-08-01T06:54:33.169Z,18272
2016-08-01T06:56:33.228Z,47904
2016-08-01T06:57:33.265Z,68608
2016-08-01T06:58:33.304Z,48416
2016-08-01T06:59:33.333Z,57280
2016-08-01T07:00:48.297Z,11432
2016-08-01T07:01:33.402Z,9592
2016-08-01T07:02:33.442Z,13280
2016-08-01T07:04:33.509Z,14432
2016-08-01T07:05:33.538Z,72256
2016-08-01T07:06:33.578Z,13568
2016-08-01T07:07:33.606Z,71040
2016-08-01T07:08:33.640Z,13776
2016-08-01T07:09:33.676Z,47296
2016-08-01T07:10:34.411Z,14820
2016-08-01T07:12:33.774Z,73664
2016-08-01T07:13:33.810Z,15356
2016-08-01T07:14:33.837Z,73888
2016-08-01T07:15:34.566Z,71328
2016-08-01T07:16:48.832Z,14804
2016-08-01T07:17:33.943Z,17344
2016-08-01T07:18:33.976Z,60960
2016-08-01T07:20:34.041Z,72832
2016-08-01T07:21:34.073Z,15428
2016-08-01T07:22:34.105Z,83904
2016-08-01T07:23:34.142Z,33280
2016-08-01T07:24:34.180Z,12804
2016-08-01T07:25:34.215Z,60864
2016-08-01T07:26:34.249Z,53696
2016-08-01T07:27:34.274Z,66496
2016-08-01T07:28:34.315Z,74912
2016-08-01T07:29:34.334Z,74432
2016-08-01T07:30:34.370Z,71872
2016-08-01T07:31:34.406Z,72480
2016-08-01T07:32:34.436Z,68128
2016-08-01T07:33:49.399Z,63456
2016-08-01T07:34:49.435Z,72384
2016-08-01T07:35:49.461Z,70144
2016-08-01T07:36:34.571Z,73344
2016-08-01T07:37:34.605Z,49376
2016-08-01T07:38:34.641Z,13632
2016-08-01T07:39:34.673Z,77184
2016-08-01T07:40:34.705Z,72064
2016-08-01T07:42:34.784Z,73920
2016-08-01T07:43:34.851Z,58208
2016-08-01T07:44:34.843Z,74752
2016-08-01T07:45:34.882Z,69504
2016-08-01T07:46:34.970Z,76480
2016-08-01T07:47:34.941Z,74176
2016-08-01T07:48:34.979Z,19456
2016-08-01T07:49:35.014Z,24160
2016-08-01T07:50:35.048Z,13368
2016-08-01T07:51:35.080Z,73696
2016-08-01T07:52:35.119Z,71040
2016-08-01T07:53:35.152Z,70784
2016-08-01T07:54:35.181Z,73824
2016-08-01T07:55:35.225Z,66368
2016-08-01T07:56:35.255Z,71520
2016-08-01T07:57:35.292Z,68576
2016-08-01T07:58:35.323Z,67392
2016-08-01T07:59:35.350Z,22688
2016-08-01T08:00:35.404Z,69504
2016-08-01T08:01:35.422Z,70816
2016-08-01T08:02:35.474Z,63456
2016-08-01T08:03:50.436Z,14556
2016-08-01T08:04:35.540Z,15424
2016-08-01T08:05:35.567Z,14784
2016-08-01T08:06:50.533Z,68000
2016-08-01T08:07:35.638Z,68576
2016-08-01T08:08:36.356Z,63232
2016-08-01T08:09:35.702Z,63872
2016-08-01T08:10:35.737Z,69376
2016-08-01T08:11:35.781Z,62336
2016-08-01T08:12:35.801Z,59552
2016-08-01T08:14:35.867Z,60640
2016-08-01T08:15:35.909Z,55680
2016-08-01T08:16:35.943Z,55200
2016-08-01T08:17:35.972Z,57824
2016-08-01T08:18:36.014Z,58560
2016-08-01T08:19:50.972Z,49952
2016-08-01T08:20:36.075Z,36256
2016-08-01T08:21:36.118Z,24448
2016-08-01T08:22:51.073Z,23712
2016-08-01T08:24:36.223Z,11952
2016-08-01T08:25:36.303Z,23200
2016-08-01T08:27:36.328Z,22976
2016-08-01T08:28:36.359Z,24064
2016-08-01T08:29:36.387Z,24960
2016-08-01T08:31:36.461Z,25152
2016-08-01T08:33:36.529Z,12296
2016-08-01T08:34:36.570Z,11756
2016-08-01T08:35:36.604Z,11996
2016-08-01T08:36:51.560Z,11924
2016-08-01T08:37:36.669Z,12008
2016-08-01T08:38:51.623Z,12508
2016-08-01T08:39:51.656Z,10876
2016-08-01T08:40:36.768Z,10084
2016-08-01T08:41:36.810Z,10300
2016-08-01T08:42:36.851Z,11240
2016-08-01T08:45:36.947Z,10760
2016-08-01T08:46:36.974Z,11080
2016-08-01T08:48:37.038Z,22112
2016-08-01T08:49:37.066Z,21280
2016-08-01T08:50:52.078Z,10768
2016-08-01T08:51:52.059Z,17020
2016-08-01T08:52:37.168Z,20672
2016-08-01T08:53:37.202Z,20352
2016-08-01T08:54:52.156Z,20672
2016-08-01T08:55:37.260Z,8720
2016-08-01T08:56:37.298Z,8852
2016-08-01T08:57:37.333Z,17440
2016-08-01T08:58:37.417Z,10204
2016-08-01T08:59:37.453Z,13140
2016-08-01T09:00:37.429Z,22240
2016-08-01T09:01:37.460Z,12980
2016-08-01T09:02:52.429Z,22976
2016-08-01T09:03:37.529Z,22624
2016-08-01T09:04:37.570Z,21664
2016-08-01T09:06:37.628Z,21280
2016-08-01T09:07:52.587Z,9320
2016-08-01T09:08:37.701Z,9472
2016-08-01T09:10:37.764Z,9480
2016-08-01T09:11:37.794Z,10032
2016-08-01T09:12:37.825Z,11096
2016-08-01T09:13:37.862Z,12376
2016-08-01T09:14:37.901Z,21568
2016-08-01T09:15:37.931Z,20832
2016-08-01T09:16:37.960Z,21056
2016-08-01T09:17:38.001Z,20096
2016-08-01T09:18:38.019Z,18336
2016-08-01T09:19:38.061Z,18368
2016-08-01T09:20:38.106Z,17600
2016-08-01T09:21:38.126Z,17984
2016-08-01T09:22:38.168Z,17152
2016-08-01T09:24:53.148Z,16180
2016-08-01T09:25:53.185Z,16812
2016-08-01T09:26:38.339Z,7268
2016-08-01T09:27:38.324Z,16552
2016-08-01T09:28:38.355Z,16684
2016-08-01T09:29:38.393Z,16648
2016-08-01T09:30:38.424Z,16812
2016-08-01T09:32:38.498Z,18240
2016-08-01T09:35:38.600Z,16164
2016-08-01T09:36:38.618Z,18432
2016-08-01T09:37:38.654Z,19072
2016-08-01T09:38:38.696Z,18304
2016-08-01T09:39:38.725Z,17408
2016-08-01T09:40:38.753Z,16784
2016-08-01T09:41:53.714Z,16216
2016-08-01T09:42:38.820Z,15960
2016-08-01T09:43:38.856Z,15676
2016-08-01T09:44:38.886Z,15344
2016-08-01T09:45:38.923Z,14760
2016-08-01T09:46:38.955Z,8604
2016-08-01T09:47:38.984Z,17312
2016-08-01T09:48:39.721Z,12644
2016-08-01T09:49:39.045Z,8216
2016-08-01T09:50:39.084Z,16612
2016-08-01T09:51:39.122Z,16208
2016-08-01T09:52:39.162Z,15740
2016-08-01T09:53:39.179Z,15560
2016-08-01T09:54:39.224Z,15292
2016-08-01T09:56:54.203Z,15360
2016-08-01T09:57:54.244Z,15360
2016-08-01T09:58:39.353Z,7680
2016-08-01T09:59:39.429Z,6756
2016-08-01T10:01:54.381Z,14932
2016-08-01T10:02:39.492Z,6764
2016-08-01T10:03:39.519Z,6496
2016-08-01T10:04:39.541Z,6924
2016-08-01T10:05:39.582Z,15692
2016-08-01T10:06:39.619Z,16048
2016-08-01T10:07:39.638Z,16236
2016-08-01T10:08:39.675Z,16248
2016-08-01T10:09:39.710Z,15928
2016-08-01T10:10:39.744Z,15708
2016-08-01T10:11:39.780Z,15580
2016-08-01T10:12:54.733Z,13872
2016-08-01T10:13:54.762Z,9428
2016-08-01T10:14:39.884Z,12884
2016-08-01T10:15:39.909Z,8508
2016-08-01T10:17:39.968Z,7700
2016-08-01T10:18:40.693Z,7800
2016-08-01T10:19:40.038Z,16360
2016-08-01T10:21:40.152Z,16396
2016-08-01T10:22:40.137Z,16800
2016-08-01T10:23:40.163Z,16412
2016-08-01T10:24:40.202Z,15736
2016-08-01T10:25:40.225Z,10008
2016-08-01T10:26:40.263Z,12148
2016-08-01T10:27:40.299Z,6232
2016-08-01T10:28:40.333Z,6172
2016-08-01T10:30:40.396Z,12524
2016-08-01T10:31:40.577Z,15736
2016-08-01T10:32:40.752Z,15924
2016-08-01T10:33:40.488Z,16736
2016-08-01T10:34:40.526Z,9488
2016-08-01T10:35:40.559Z,8600
2016-08-01T10:36:40.596Z,8040
2016-08-01T10:37:40.620Z,10724
2016-08-01T10:38:55.579Z,7856
2016-08-01T10:39:40.687Z,8324
2016-08-01T10:40:40.720Z,15640
2016-08-01T10:41:40.757Z,15320
2016-08-01T10:42:40.777Z,15044
2016-08-01T10:43:40.813Z,7728
2016-08-01T10:44:55.775Z,13840
2016-08-01T10:45:40.883Z,13844
2016-08-01T10:46:40.916Z,13096
2016-08-01T10:47:40.937Z,12836
2016-08-01T10:48:55.908Z,12508
2016-08-01T10:49:41.009Z,12320
2016-08-01T10:50:55.969Z,12160
2016-08-01T10:51:41.074Z,5124
2016-08-01T10:52:41.103Z,5028
2016-08-01T10:53:41.136Z,12040
2016-08-01T10:54:41.164Z,5484
2016-08-01T10:55:41.206Z,6232
2016-08-01T10:56:56.158Z,6892
2016-08-01T10:57:56.187Z,6796
2016-08-01T10:58:41.296Z,6644
2016-08-01T11:00:41.402Z,6012
2016-08-01T11:01:41.383Z,6108
2016-08-01T11:02:41.414Z,6268
2016-08-01T11:03:41.457Z,6432
2016-08-01T11:04:41.471Z,6608
2016-08-01T11:05:42.334Z,7000
2016-08-01T11:06:41.541Z,7580
2016-08-01T11:07:41.574Z,8144
2016-08-01T11:08:41.605Z,8276
2016-08-01T11:09:41.635Z,8444
2016-08-01T11:11:41.695Z,8148
2016-08-01T11:12:56.657Z,8240
2016-08-01T11:13:42.473Z,8748
2016-08-01T11:14:42.510Z,8452
2016-08-01T11:15:42.524Z,8700
2016-08-01T11:16:56.788Z,8908
2016-08-01T11:17:56.811Z,8928
2016-08-01T11:18:42.617Z,8712
2016-08-01T11:19:41.946Z,8556
2016-08-01T11:21:42.012Z,8332
2016-08-01T11:22:42.741Z,7780
2016-08-01T11:23:42.066Z,7180
2016-08-01T11:24:42.104Z,6724
2016-08-01T11:25:57.066Z,6336
2016-08-01T11:26:42.162Z,6192
2016-08-01T11:27:42.193Z,6040
2016-08-01T11:28:42.227Z,6060
2016-08-01T11:29:42.255Z,6196
2016-08-01T11:30:42.295Z,6420
2016-08-01T11:31:57.244Z,6520
2016-08-01T11:32:57.276Z,6636
2016-08-01T11:33:42.393Z,6772
2016-08-01T11:34:42.418Z,7128
2016-08-01T11:36:57.389Z,7992
2016-08-01T11:37:42.509Z,8196
2016-08-01T11:38:42.558Z,8876
2016-08-01T11:39:42.664Z,8852
2016-08-01T11:40:57.524Z,9652
2016-08-01T11:41:57.558Z,9568
2016-08-01T11:42:42.663Z,9496
2016-08-01T11:43:42.682Z,9492
2016-08-01T11:44:57.647Z,9340
2016-08-01T11:45:42.747Z,9348
2016-08-01T11:46:42.783Z,9352
2016-08-01T11:47:57.728Z,9288
2016-08-01T11:48:57.760Z,9232
2016-08-01T11:49:43.562Z,9200
2016-08-01T11:50:42.898Z,9156
2016-08-01T11:51:42.933Z,9032
2016-08-01T11:52:42.955Z,8936
2016-08-01T11:53:42.982Z,8712
2016-08-01T11:54:43.024Z,8248
2016-08-01T11:55:43.048Z,7732
2016-08-01T11:56:43.073Z,7172
2016-08-01T11:57:43.120Z,6664
2016-08-01T11:58:58.066Z,6052
2016-08-01T11:59:43.172Z,5696
2016-08-01T12:00:43.267Z,5200
2016-08-01T12:01:43.237Z,4784
2016-08-01T12:02:43.263Z,4440
2016-08-01T12:03:43.302Z,4192
2016-08-01T12:04:58.300Z,4004
2016-08-01T12:05:43.349Z,3920
2016-08-01T12:06:43.387Z,3820
2016-08-01T12:07:43.413Z,3744
2016-08-01T12:08:43.456Z,3672
2016-08-01T12:09:43.474Z,3636
2016-08-01T12:10:43.494Z,3588
2016-08-01T12:11:44.234Z,3480
2016-08-01T12:12:43.568Z,3472
2016-08-01T12:13:43.600Z,3600
2016-08-01T12:14:43.622Z,3816
2016-08-01T12:15:43.657Z,4088
2016-08-01T12:16:43.679Z,4368
2016-08-01T12:17:43.712Z,4584
2016-08-01T12:18:43.744Z,4676
2016-08-01T12:19:58.700Z,4944
2016-08-01T12:20:43.794Z,5120
2016-08-01T12:21:43.828Z,5404
2016-08-01T12:22:43.860Z,5708
2016-08-01T12:23:43.881Z,5916
2016-08-01T12:24:58.849Z,6540
2016-08-01T12:25:43.942Z,6888
2016-08-01T12:26:43.965Z,7160
2016-08-01T12:27:44.002Z,7664
2016-08-01T12:28:44.034Z,8204
2016-08-01T12:30:44.101Z,9404
2016-08-01T12:31:59.046Z,9308
2016-08-01T12:32:59.074Z,9476
2016-08-01T12:33:44.195Z,9548
2016-08-01T12:34:44.908Z,9476
2016-08-01T12:35:44.242Z,9336
2016-08-01T12:36:59.206Z,9052
2016-08-01T12:37:44.299Z,8904
2016-08-01T12:38:44.329Z,8688
2016-08-01T12:39:44.373Z,8300
2016-08-01T12:40:44.388Z,7872
2016-08-01T12:41:44.416Z,7344
2016-08-01T12:42:44.449Z,6780
2016-08-01T12:43:44.481Z,6164
2016-08-01T12:44:44.504Z,5684
2016-08-01T12:45:44.540Z,5448
2016-08-01T12:46:59.491Z,5340
2016-08-01T12:47:44.596Z,5380
2016-08-01T12:48:44.678Z,5504
2016-08-01T12:50:44.690Z,5944
2016-08-01T12:51:59.643Z,6704
2016-08-01T12:52:44.745Z,6404
2016-08-01T12:53:44.774Z,6640
2016-08-01T12:54:44.801Z,7104
2016-08-01T12:55:44.837Z,7556
2016-08-01T12:56:44.854Z,7948
2016-08-01T12:57:44.889Z,8252
2016-08-01T12:59:44.957Z,8120
2016-08-01T13:00:44.981Z,8072
2016-08-01T13:01:59.938Z,8392
2016-08-01T13:02:45.044Z,8452
2016-08-01T13:04:00.000Z,8392
2016-08-01T13:04:45.098Z,8556
2016-08-01T13:05:45.133Z,8852
2016-08-01T13:08:00.165Z,8856
2016-08-01T13:08:45.914Z,8916
2016-08-01T13:09:45.250Z,9160
2016-08-01T13:10:45.274Z,9320
2016-08-01T13:11:45.315Z,9336
2016-08-01T13:12:45.342Z,9136
2016-08-01T13:13:45.379Z,9100
2016-08-01T13:14:45.397Z,8900
2016-08-01T13:15:46.124Z,8920
2016-08-01T13:16:45.451Z,9036
2016-08-01T13:17:45.484Z,8992
2016-08-01T13:18:45.513Z,9000
2016-08-01T13:19:45.563Z,8928
2016-08-01T13:20:45.575Z,8884
2016-08-01T13:22:45.628Z,7944
2016-08-01T13:24:00.593Z,7288
2016-08-01T13:24:45.691Z,7104
2016-08-01T13:25:45.728Z,6988
2016-08-01T13:26:45.755Z,7104
2016-08-01T13:27:45.783Z,7432
2016-08-01T13:28:45.810Z,7860
2016-08-01T13:29:45.847Z,8516
2016-08-01T13:30:45.870Z,8792
2016-08-01T13:31:45.948Z,9480
2016-08-01T13:32:46.636Z,8872
2016-08-01T13:33:45.970Z,8544
2016-08-01T13:34:45.995Z,8464
2016-08-01T13:36:00.951Z,8540
2016-08-01T13:36:46.050Z,8164
2016-08-01T13:37:46.084Z,7216
2016-08-01T13:38:46.118Z,9236
2016-08-01T13:40:46.177Z,8400
2016-08-01T13:41:46.206Z,8360
2016-08-01T13:42:46.236Z,7740
2016-08-01T13:43:46.266Z,7528
2016-08-01T13:44:46.291Z,7804
2016-08-01T13:45:47.021Z,5188
2016-08-01T13:47:46.395Z,7856
2016-08-01T13:48:46.417Z,7652
2016-08-01T13:50:01.372Z,7012
2016-08-01T13:52:01.431Z,7224
2016-08-01T13:53:01.456Z,4832
2016-08-01T13:53:46.561Z,4240
2016-08-01T13:55:02.218Z,3676
2016-08-01T13:56:01.546Z,3636
2016-08-01T13:56:46.651Z,3636
2016-08-01T13:57:46.680Z,5592
2016-08-01T13:58:46.712Z,6716
2016-08-01T13:59:46.740Z,6616
2016-08-01T14:00:47.486Z,6712
2016-08-01T14:02:01.732Z,6724
2016-08-01T14:02:46.833Z,6796
2016-08-01T14:05:01.816Z,6924
2016-08-01T14:06:46.947Z,6988
2016-08-01T14:07:46.975Z,6948
2016-08-01T14:08:47.010Z,6860
2016-08-01T14:09:47.054Z,6776
2016-08-01T14:10:47.073Z,6652
2016-08-01T14:12:02.015Z,6644
2016-08-01T14:12:47.117Z,6640
2016-08-01T14:13:47.151Z,5496
2016-08-01T14:14:47.182Z,6472
2016-08-01T14:15:47.206Z,6596
2016-08-01T14:16:47.246Z,3744
2016-08-01T14:17:47.272Z,6556
2016-08-01T14:18:47.297Z,5728
2016-08-01T14:19:47.328Z,4904
2016-08-01T14:20:47.358Z,6820
2016-08-01T14:21:47.398Z,6776
2016-08-01T14:22:47.439Z,7764
2016-08-01T14:23:47.444Z,7816
2016-08-01T14:24:47.554Z,7680
2016-08-01T14:25:47.504Z,7376
2016-08-01T14:27:47.559Z,4744
2016-08-01T14:28:47.603Z,4140
2016-08-01T14:29:47.629Z,6148
2016-08-01T14:30:47.651Z,3928
2016-08-01T14:32:02.616Z,4000
2016-08-01T14:32:47.708Z,5520
2016-08-01T14:33:48.439Z,5964
2016-08-01T14:34:47.778Z,5552
2016-08-01T14:35:47.802Z,6484
2016-08-01T14:36:47.835Z,6916
2016-08-01T14:37:47.859Z,7180